sensor_id;sensor_type;location;lat;lon;timestamp;P1;durP1;ratioP1;P2;durP2;ratioP2
13443;SDS011;6794;59.218;18.218;2024-03-22T00:01:47;6.17;;;4.80;;
13443;SDS011;6794;59.218;18.218;2024-03-22T00:04:15;6.10;;;4.40;;
13443;SDS011;6794;59.218;18.218;2024-03-22T00:06:41;6.37;;;4.40;;
13443;SDS011;6794;59.218;18.218;2024-03-22T00:09:07;4.70;;;3.97;;
13443;SDS011;6794;59.218;18.218;2024-03-22T00:11:33;6.47;;;3.93;;
13443;SDS011;6794;59.218;18.218;2024-03-22T00:13:59;6.80;;;4.30;;
13443;SDS011;6794;59.218;18.218;2024-03-22T00:16:25;5.50;;;3.50;;
13443;SDS011;6794;59.218;18.218;2024-03-22T00:18:52;5.87;;;4.27;;
13443;SDS011;6794;59.218;18.218;2024-03-22T00:21:18;6.07;;;3.77;;
13443;SDS011;6794;59.218;18.218;2024-03-22T00:23:44;5.73;;;4.27;;
13443;SDS011;6794;59.218;18.218;2024-03-22T00:26:10;4.63;;;3.73;;
13443;SDS011;6794;59.218;18.218;2024-03-22T00:28:36;5.30;;;3.60;;
13443;SDS011;6794;59.218;18.218;2024-03-22T00:31:02;4.27;;;3.30;;
13443;SDS011;6794;59.218;18.218;2024-03-22T00:33:28;5.37;;;3.73;;
13443;SDS011;6794;59.218;18.218;2024-03-22T00:35:54;5.33;;;3.73;;
13443;SDS011;6794;59.218;18.218;2024-03-22T00:38:20;6.07;;;4.53;;
13443;SDS011;6794;59.218;18.218;2024-03-22T00:40:46;5.63;;;3.43;;
13443;SDS011;6794;59.218;18.218;2024-03-22T00:43:12;4.40;;;3.50;;
13443;SDS011;6794;59.218;18.218;2024-03-22T00:45:38;5.03;;;3.40;;
13443;SDS011;6794;59.218;18.218;2024-03-22T00:48:05;5.63;;;2.97;;
13443;SDS011;6794;59.218;18.218;2024-03-22T00:50:31;6.33;;;3.13;;
13443;SDS011;6794;59.218;18.218;2024-03-22T00:52:57;3.77;;;3.00;;
13443;SDS011;6794;59.218;18.218;2024-03-22T00:55:23;4.00;;;3.33;;
13443;SDS011;6794;59.218;18.218;2024-03-22T00:57:49;4.40;;;3.30;;
13443;SDS011;6794;59.218;18.218;2024-03-22T01:00:15;3.47;;;3.00;;
13443;SDS011;6794;59.218;18.218;2024-03-22T01:02:42;4.23;;;3.20;;
13443;SDS011;6794;59.218;18.218;2024-03-22T01:05:08;3.97;;;2.77;;
13443;SDS011;6794;59.218;18.218;2024-03-22T01:07:35;3.80;;;3.00;;
13443;SDS011;6794;59.218;18.218;2024-03-22T01:10:01;4.43;;;3.13;;
13443;SDS011;6794;59.218;18.218;2024-03-22T01:12:27;3.50;;;2.87;;
13443;SDS011;6794;59.218;18.218;2024-03-22T01:14:53;5.77;;;3.13;;
13443;SDS011;6794;59.218;18.218;2024-03-22T01:17:19;4.67;;;2.70;;
13443;SDS011;6794;59.218;18.218;2024-03-22T01:19:45;5.43;;;3.92;;
13443;SDS011;6794;59.218;18.218;2024-03-22T01:22:11;4.93;;;3.40;;
13443;SDS011;6794;59.218;18.218;2024-03-22T01:24:37;6.23;;;4.00;;
13443;SDS011;6794;59.218;18.218;2024-03-22T01:27:03;3.97;;;3.23;;
13443;SDS011;6794;59.218;18.218;2024-03-22T01:29:30;4.37;;;3.00;;
13443;SDS011;6794;59.218;18.218;2024-03-22T01:31:57;4.60;;;3.40;;
13443;SDS011;6794;59.218;18.218;2024-03-22T01:34:24;5.23;;;2.80;;
13443;SDS011;6794;59.218;18.218;2024-03-22T01:36:51;5.57;;;2.90;;
13443;SDS011;6794;59.218;18.218;2024-03-22T01:39:18;4.43;;;3.00;;
13443;SDS011;6794;59.218;18.218;2024-03-22T01:41:46;3.93;;;3.23;;
13443;SDS011;6794;59.218;18.218;2024-03-22T01:44:12;5.13;;;3.50;;
13443;SDS011;6794;59.218;18.218;2024-03-22T01:46:39;3.77;;;3.30;;
13443;SDS011;6794;59.218;18.218;2024-03-22T01:49:05;5.53;;;3.43;;
13443;SDS011;6794;59.218;18.218;2024-03-22T01:51:31;5.87;;;3.57;;
13443;SDS011;6794;59.218;18.218;2024-03-22T01:53:57;5.87;;;3.93;;
13443;SDS011;6794;59.218;18.218;2024-03-22T01:56:25;4.97;;;3.30;;
13443;SDS011;6794;59.218;18.218;2024-03-22T01:58:51;6.20;;;2.93;;
13443;SDS011;6794;59.218;18.218;2024-03-22T02:01:17;4.87;;;3.30;;
13443;SDS011;6794;59.218;18.218;2024-03-22T02:03:43;6.13;;;3.77;;
13443;SDS011;6794;59.218;18.218;2024-03-22T02:06:09;4.10;;;3.10;;
13443;SDS011;6794;59.218;18.218;2024-03-22T02:08:35;6.93;;;3.50;;
13443;SDS011;6794;59.218;18.218;2024-03-22T02:11:01;4.10;;;2.73;;
13443;SDS011;6794;59.218;18.218;2024-03-22T02:13:27;4.23;;;2.87;;
13443;SDS011;6794;59.218;18.218;2024-03-22T02:15:53;5.57;;;3.13;;
13443;SDS011;6794;59.218;18.218;2024-03-22T02:18:19;6.63;;;4.07;;
13443;SDS011;6794;59.218;18.218;2024-03-22T02:20:45;4.67;;;3.00;;
13443;SDS011;6794;59.218;18.218;2024-03-22T02:23:11;5.90;;;3.40;;
13443;SDS011;6794;59.218;18.218;2024-03-22T02:25:37;4.03;;;3.20;;
13443;SDS011;6794;59.218;18.218;2024-03-22T02:28:03;3.20;;;2.90;;
13443;SDS011;6794;59.218;18.218;2024-03-22T02:30:29;7.83;;;3.87;;
13443;SDS011;6794;59.218;18.218;2024-03-22T02:32:55;5.77;;;3.80;;
13443;SDS011;6794;59.218;18.218;2024-03-22T02:35:21;4.87;;;3.50;;
13443;SDS011;6794;59.218;18.218;2024-03-22T02:37:47;4.60;;;3.40;;
13443;SDS011;6794;59.218;18.218;2024-03-22T02:40:13;8.10;;;3.53;;
13443;SDS011;6794;59.218;18.218;2024-03-22T02:42:39;3.30;;;2.80;;
13443;SDS011;6794;59.218;18.218;2024-03-22T02:45:05;4.93;;;2.90;;
13443;SDS011;6794;59.218;18.218;2024-03-22T02:47:31;7.17;;;3.17;;
13443;SDS011;6794;59.218;18.218;2024-03-22T02:49:57;4.93;;;3.40;;
13443;SDS011;6794;59.218;18.218;2024-03-22T02:52:23;5.57;;;3.40;;
13443;SDS011;6794;59.218;18.218;2024-03-22T02:54:49;3.93;;;3.07;;
13443;SDS011;6794;59.218;18.218;2024-03-22T02:57:15;3.50;;;3.00;;
13443;SDS011;6794;59.218;18.218;2024-03-22T02:59:42;5.97;;;3.00;;
13443;SDS011;6794;59.218;18.218;2024-03-22T03:02:08;4.10;;;3.00;;
13443;SDS011;6794;59.218;18.218;2024-03-22T03:04:34;5.13;;;2.80;;
13443;SDS011;6794;59.218;18.218;2024-03-22T03:07:00;4.73;;;3.20;;
13443;SDS011;6794;59.218;18.218;2024-03-22T03:09:26;3.83;;;2.93;;
13443;SDS011;6794;59.218;18.218;2024-03-22T03:11:51;5.47;;;3.00;;
13443;SDS011;6794;59.218;18.218;2024-03-22T03:14:17;4.63;;;2.70;;
13443;SDS011;6794;59.218;18.218;2024-03-22T03:16:44;5.53;;;3.27;;
13443;SDS011;6794;59.218;18.218;2024-03-22T03:19:10;5.47;;;2.93;;
13443;SDS011;6794;59.218;18.218;2024-03-22T03:21:35;6.33;;;3.70;;
13443;SDS011;6794;59.218;18.218;2024-03-22T03:24:02;3.57;;;3.07;;
13443;SDS011;6794;59.218;18.218;2024-03-22T03:26:28;5.07;;;3.40;;
13443;SDS011;6794;59.218;18.218;2024-03-22T03:28:54;6.90;;;3.90;;
13443;SDS011;6794;59.218;18.218;2024-03-22T03:31:20;5.40;;;3.63;;
13443;SDS011;6794;59.218;18.218;2024-03-22T03:33:46;7.40;;;4.57;;
13443;SDS011;6794;59.218;18.218;2024-03-22T03:36:12;4.57;;;3.77;;
13443;SDS011;6794;59.218;18.218;2024-03-22T03:38:38;9.90;;;3.70;;
13443;SDS011;6794;59.218;18.218;2024-03-22T03:41:04;6.10;;;3.60;;
13443;SDS011;6794;59.218;18.218;2024-03-22T03:43:30;6.27;;;3.43;;
13443;SDS011;6794;59.218;18.218;2024-03-22T03:45:56;7.60;;;4.00;;
13443;SDS011;6794;59.218;18.218;2024-03-22T03:48:22;6.15;;;4.18;;
13443;SDS011;6794;59.218;18.218;2024-03-22T03:50:56;7.13;;;4.30;;
13443;SDS011;6794;59.218;18.218;2024-03-22T03:53:27;5.00;;;3.83;;
13443;SDS011;6794;59.218;18.218;2024-03-22T03:55:53;4.83;;;3.07;;
13443;SDS011;6794;59.218;18.218;2024-03-22T03:58:19;5.37;;;3.57;;
13443;SDS011;6794;59.218;18.218;2024-03-22T04:00:45;6.20;;;3.23;;
13443;SDS011;6794;59.218;18.218;2024-03-22T04:03:11;6.63;;;3.57;;
13443;SDS011;6794;59.218;18.218;2024-03-22T04:05:37;5.53;;;3.27;;
13443;SDS011;6794;59.218;18.218;2024-03-22T04:08:03;5.60;;;4.32;;
13443;SDS011;6794;59.218;18.218;2024-03-22T04:10:30;5.83;;;3.60;;
13443;SDS011;6794;59.218;18.218;2024-03-22T04:12:56;4.07;;;3.40;;
13443;SDS011;6794;59.218;18.218;2024-03-22T04:15:22;4.23;;;2.93;;
13443;SDS011;6794;59.218;18.218;2024-03-22T04:17:48;5.60;;;3.20;;
13443;SDS011;6794;59.218;18.218;2024-03-22T04:20:14;6.33;;;3.33;;
13443;SDS011;6794;59.218;18.218;2024-03-22T04:22:40;4.63;;;3.10;;
13443;SDS011;6794;59.218;18.218;2024-03-22T04:25:06;5.37;;;3.00;;
13443;SDS011;6794;59.218;18.218;2024-03-22T04:27:35;5.27;;;2.53;;
13443;SDS011;6794;59.218;18.218;2024-03-22T04:30:04;3.80;;;2.87;;
13443;SDS011;6794;59.218;18.218;2024-03-22T04:32:30;5.10;;;2.83;;
13443;SDS011;6794;59.218;18.218;2024-03-22T04:34:56;6.53;;;3.60;;
13443;SDS011;6794;59.218;18.218;2024-03-22T04:37:22;4.57;;;3.30;;
13443;SDS011;6794;59.218;18.218;2024-03-22T04:39:49;4.43;;;2.57;;
13443;SDS011;6794;59.218;18.218;2024-03-22T04:42:15;4.33;;;2.67;;
13443;SDS011;6794;59.218;18.218;2024-03-22T04:44:41;6.17;;;2.93;;
13443;SDS011;6794;59.218;18.218;2024-03-22T04:47:07;6.10;;;2.87;;
13443;SDS011;6794;59.218;18.218;2024-03-22T04:49:33;3.63;;;2.40;;
13443;SDS011;6794;59.218;18.218;2024-03-22T04:51:59;6.70;;;2.80;;
13443;SDS011;6794;59.218;18.218;2024-03-22T04:54:25;4.57;;;2.93;;
13443;SDS011;6794;59.218;18.218;2024-03-22T04:56:51;4.10;;;2.27;;
13443;SDS011;6794;59.218;18.218;2024-03-22T04:59:17;4.63;;;2.57;;
13443;SDS011;6794;59.218;18.218;2024-03-22T05:01:43;4.40;;;2.80;;
13443;SDS011;6794;59.218;18.218;2024-03-22T05:04:09;4.53;;;2.73;;
13443;SDS011;6794;59.218;18.218;2024-03-22T05:06:35;4.93;;;3.00;;
13443;SDS011;6794;59.218;18.218;2024-03-22T05:09:01;4.43;;;2.80;;
13443;SDS011;6794;59.218;18.218;2024-03-22T05:11:28;4.77;;;2.60;;
13443;SDS011;6794;59.218;18.218;2024-03-22T05:13:55;4.60;;;2.83;;
13443;SDS011;6794;59.218;18.218;2024-03-22T05:16:21;2.43;;;2.07;;
13443;SDS011;6794;59.218;18.218;2024-03-22T05:18:48;3.53;;;2.43;;
13443;SDS011;6794;59.218;18.218;2024-03-22T05:21:14;3.63;;;2.33;;
13443;SDS011;6794;59.218;18.218;2024-03-22T05:23:40;5.30;;;2.90;;
13443;SDS011;6794;59.218;18.218;2024-03-22T05:26:07;3.20;;;2.43;;
13443;SDS011;6794;59.218;18.218;2024-03-22T05:28:33;5.40;;;2.73;;
13443;SDS011;6794;59.218;18.218;2024-03-22T05:30:59;3.47;;;2.57;;
13443;SDS011;6794;59.218;18.218;2024-03-22T05:33:25;3.37;;;2.90;;
13443;SDS011;6794;59.218;18.218;2024-03-22T05:35:51;4.63;;;2.83;;
13443;SDS011;6794;59.218;18.218;2024-03-22T05:38:17;4.13;;;2.80;;
13443;SDS011;6794;59.218;18.218;2024-03-22T05:40:43;4.03;;;2.67;;
13443;SDS011;6794;59.218;18.218;2024-03-22T05:43:12;3.97;;;2.70;;
13443;SDS011;6794;59.218;18.218;2024-03-22T05:45:38;5.53;;;2.47;;
13443;SDS011;6794;59.218;18.218;2024-03-22T05:48:04;4.70;;;3.07;;
13443;SDS011;6794;59.218;18.218;2024-03-22T05:50:31;4.67;;;2.70;;
13443;SDS011;6794;59.218;18.218;2024-03-22T05:52:57;6.77;;;3.10;;
13443;SDS011;6794;59.218;18.218;2024-03-22T05:55:23;3.27;;;2.33;;
13443;SDS011;6794;59.218;18.218;2024-03-22T05:57:52;4.13;;;2.67;;
13443;SDS011;6794;59.218;18.218;2024-03-22T06:00:18;5.43;;;3.40;;
13443;SDS011;6794;59.218;18.218;2024-03-22T06:02:44;6.40;;;3.00;;
13443;SDS011;6794;59.218;18.218;2024-03-22T06:05:10;5.53;;;3.53;;
13443;SDS011;6794;59.218;18.218;2024-03-22T06:07:36;4.47;;;3.43;;
13443;SDS011;6794;59.218;18.218;2024-03-22T06:10:07;3.87;;;3.30;;
13443;SDS011;6794;59.218;18.218;2024-03-22T06:12:35;5.60;;;3.40;;
13443;SDS011;6794;59.218;18.218;2024-03-22T06:15:01;5.80;;;3.40;;
13443;SDS011;6794;59.218;18.218;2024-03-22T06:17:31;4.67;;;3.53;;
13443;SDS011;6794;59.218;18.218;2024-03-22T06:19:57;6.70;;;3.60;;
13443;SDS011;6794;59.218;18.218;2024-03-22T06:22:24;5.15;;;3.55;;
13443;SDS011;6794;59.218;18.218;2024-03-22T06:24:50;8.00;;;3.87;;
13443;SDS011;6794;59.218;18.218;2024-03-22T06:27:16;5.27;;;3.60;;
13443;SDS011;6794;59.218;18.218;2024-03-22T06:29:42;4.03;;;3.60;;
13443;SDS011;6794;59.218;18.218;2024-03-22T06:32:08;8.30;;;3.50;;
13443;SDS011;6794;59.218;18.218;2024-03-22T06:34:34;8.83;;;4.47;;
13443;SDS011;6794;59.218;18.218;2024-03-22T06:37:00;4.70;;;3.43;;
13443;SDS011;6794;59.218;18.218;2024-03-22T06:39:27;4.87;;;3.33;;
13443;SDS011;6794;59.218;18.218;2024-03-22T06:41:53;6.97;;;3.80;;
13443;SDS011;6794;59.218;18.218;2024-03-22T06:44:19;6.73;;;3.57;;
13443;SDS011;6794;59.218;18.218;2024-03-22T06:46:45;4.77;;;3.27;;
13443;SDS011;6794;59.218;18.218;2024-03-22T06:49:11;4.97;;;3.37;;
13443;SDS011;6794;59.218;18.218;2024-03-22T06:51:37;5.83;;;3.37;;
13443;SDS011;6794;59.218;18.218;2024-03-22T06:54:03;3.93;;;3.07;;
13443;SDS011;6794;59.218;18.218;2024-03-22T06:56:29;4.60;;;3.67;;
13443;SDS011;6794;59.218;18.218;2024-03-22T06:58:55;5.30;;;3.93;;
13443;SDS011;6794;59.218;18.218;2024-03-22T07:01:21;7.30;;;4.75;;
13443;SDS011;6794;59.218;18.218;2024-03-22T07:03:47;6.33;;;3.73;;
13443;SDS011;6794;59.218;18.218;2024-03-22T07:06:14;7.73;;;3.60;;
13443;SDS011;6794;59.218;18.218;2024-03-22T07:08:40;4.33;;;3.33;;
13443;SDS011;6794;59.218;18.218;2024-03-22T07:11:06;5.63;;;3.83;;
13443;SDS011;6794;59.218;18.218;2024-03-22T07:13:33;6.83;;;3.43;;
13443;SDS011;6794;59.218;18.218;2024-03-22T07:15:59;5.17;;;3.50;;
13443;SDS011;6794;59.218;18.218;2024-03-22T07:18:25;4.47;;;3.30;;
13443;SDS011;6794;59.218;18.218;2024-03-22T07:20:51;5.10;;;3.50;;
13443;SDS011;6794;59.218;18.218;2024-03-22T07:23:17;5.07;;;3.47;;
13443;SDS011;6794;59.218;18.218;2024-03-22T07:25:43;6.50;;;3.90;;
13443;SDS011;6794;59.218;18.218;2024-03-22T07:28:11;6.33;;;3.87;;
13443;SDS011;6794;59.218;18.218;2024-03-22T07:30:37;4.63;;;3.80;;
13443;SDS011;6794;59.218;18.218;2024-03-22T07:33:03;6.90;;;4.10;;
13443;SDS011;6794;59.218;18.218;2024-03-22T07:35:29;5.47;;;3.80;;
13443;SDS011;6794;59.218;18.218;2024-03-22T07:37:56;5.40;;;3.77;;
13443;SDS011;6794;59.218;18.218;2024-03-22T07:40:22;6.75;;;5.25;;
13443;SDS011;6794;59.218;18.218;2024-03-22T07:42:48;5.23;;;3.57;;
13443;SDS011;6794;59.218;18.218;2024-03-22T07:45:14;6.53;;;3.60;;
13443;SDS011;6794;59.218;18.218;2024-03-22T07:47:40;5.27;;;3.50;;
13443;SDS011;6794;59.218;18.218;2024-03-22T07:50:07;6.77;;;3.53;;
13443;SDS011;6794;59.218;18.218;2024-03-22T07:52:33;6.00;;;3.77;;
13443;SDS011;6794;59.218;18.218;2024-03-22T07:54:59;6.60;;;3.70;;
13443;SDS011;6794;59.218;18.218;2024-03-22T07:57:27;5.33;;;3.47;;
13443;SDS011;6794;59.218;18.218;2024-03-22T07:59:55;7.37;;;3.83;;
13443;SDS011;6794;59.218;18.218;2024-03-22T08:02:21;6.47;;;3.70;;
13443;SDS011;6794;59.218;18.218;2024-03-22T08:04:47;7.20;;;3.50;;
13443;SDS011;6794;59.218;18.218;2024-03-22T08:07:13;4.80;;;3.87;;
13443;SDS011;6794;59.218;18.218;2024-03-22T08:09:40;6.43;;;3.47;;
13443;SDS011;6794;59.218;18.218;2024-03-22T08:12:06;6.37;;;3.40;;
13443;SDS011;6794;59.218;18.218;2024-03-22T08:14:32;7.23;;;3.77;;
13443;SDS011;6794;59.218;18.218;2024-03-22T08:16:58;3.90;;;2.90;;
13443;SDS011;6794;59.218;18.218;2024-03-22T08:19:24;5.45;;;4.25;;
13443;SDS011;6794;59.218;18.218;2024-03-22T08:21:50;3.77;;;3.03;;
13443;SDS011;6794;59.218;18.218;2024-03-22T08:24:18;5.73;;;3.37;;
13443;SDS011;6794;59.218;18.218;2024-03-22T08:26:44;3.27;;;2.50;;
13443;SDS011;6794;59.218;18.218;2024-03-22T08:29:12;5.23;;;3.17;;
13443;SDS011;6794;59.218;18.218;2024-03-22T08:31:39;3.03;;;2.60;;
13443;SDS011;6794;59.218;18.218;2024-03-22T08:34:05;3.27;;;2.80;;
13443;SDS011;6794;59.218;18.218;2024-03-22T08:36:31;3.97;;;2.67;;
13443;SDS011;6794;59.218;18.218;2024-03-22T08:38:57;3.07;;;2.40;;
13443;SDS011;6794;59.218;18.218;2024-03-22T08:41:23;2.60;;;2.40;;
13443;SDS011;6794;59.218;18.218;2024-03-22T08:43:49;3.37;;;2.40;;
13443;SDS011;6794;59.218;18.218;2024-03-22T08:46:15;3.70;;;2.97;;
13443;SDS011;6794;59.218;18.218;2024-03-22T08:48:41;5.90;;;3.50;;
13443;SDS011;6794;59.218;18.218;2024-03-22T08:51:07;4.60;;;3.10;;
13443;SDS011;6794;59.218;18.218;2024-03-22T08:53:33;5.83;;;3.20;;
13443;SDS011;6794;59.218;18.218;2024-03-22T08:56:00;4.50;;;3.00;;
13443;SDS011;6794;59.218;18.218;2024-03-22T08:58:26;4.80;;;3.70;;
13443;SDS011;6794;59.218;18.218;2024-03-22T09:00:52;3.73;;;3.03;;
13443;SDS011;6794;59.218;18.218;2024-03-22T09:03:18;4.53;;;3.37;;
13443;SDS011;6794;59.218;18.218;2024-03-22T09:05:46;4.87;;;2.97;;
13443;SDS011;6794;59.218;18.218;2024-03-22T09:08:12;4.13;;;3.17;;
13443;SDS011;6794;59.218;18.218;2024-03-22T09:10:38;4.70;;;3.10;;
13443;SDS011;6794;59.218;18.218;2024-03-22T09:13:04;3.70;;;2.67;;
13443;SDS011;6794;59.218;18.218;2024-03-22T09:15:30;4.47;;;3.33;;
13443;SDS011;6794;59.218;18.218;2024-03-22T09:17:56;3.10;;;2.60;;
13443;SDS011;6794;59.218;18.218;2024-03-22T09:20:22;3.40;;;2.87;;
13443;SDS011;6794;59.218;18.218;2024-03-22T09:22:48;3.73;;;2.73;;
13443;SDS011;6794;59.218;18.218;2024-03-22T09:25:14;3.00;;;2.70;;
13443;SDS011;6794;59.218;18.218;2024-03-22T09:27:40;3.77;;;2.80;;
13443;SDS011;6794;59.218;18.218;2024-03-22T09:30:07;3.17;;;2.30;;
13443;SDS011;6794;59.218;18.218;2024-03-22T09:32:34;3.87;;;2.67;;
13443;SDS011;6794;59.218;18.218;2024-03-22T09:35:00;4.17;;;2.93;;
13443;SDS011;6794;59.218;18.218;2024-03-22T09:37:26;3.90;;;2.88;;
13443;SDS011;6794;59.218;18.218;2024-03-22T09:39:52;3.00;;;2.40;;
13443;SDS011;6794;59.218;18.218;2024-03-22T09:42:18;3.47;;;2.60;;
13443;SDS011;6794;59.218;18.218;2024-03-22T09:44:47;4.23;;;2.40;;
13443;SDS011;6794;59.218;18.218;2024-03-22T09:47:15;4.80;;;2.70;;
13443;SDS011;6794;59.218;18.218;2024-03-22T09:49:42;3.97;;;2.93;;
13443;SDS011;6794;59.218;18.218;2024-03-22T09:52:15;3.80;;;2.80;;
13443;SDS011;6794;59.218;18.218;2024-03-22T09:54:44;4.13;;;2.90;;
13443;SDS011;6794;59.218;18.218;2024-03-22T09:57:12;5.53;;;3.50;;
13443;SDS011;6794;59.218;18.218;2024-03-22T09:59:40;5.47;;;3.53;;
13443;SDS011;6794;59.218;18.218;2024-03-22T10:02:07;6.07;;;4.10;;
13443;SDS011;6794;59.218;18.218;2024-03-22T10:04:34;4.30;;;3.60;;
13443;SDS011;6794;59.218;18.218;2024-03-22T10:07:01;6.27;;;4.33;;
13443;SDS011;6794;59.218;18.218;2024-03-22T10:09:28;5.60;;;3.83;;
13443;SDS011;6794;59.218;18.218;2024-03-22T10:11:55;4.20;;;3.30;;
13443;SDS011;6794;59.218;18.218;2024-03-22T10:14:21;7.33;;;4.43;;
13443;SDS011;6794;59.218;18.218;2024-03-22T10:16:50;8.70;;;5.75;;
13443;SDS011;6794;59.218;18.218;2024-03-22T10:19:18;9.27;;;5.00;;
13443;SDS011;6794;59.218;18.218;2024-03-22T10:21:44;6.27;;;4.07;;
13443;SDS011;6794;59.218;18.218;2024-03-22T10:24:10;7.63;;;5.47;;
13443;SDS011;6794;59.218;18.218;2024-03-22T10:26:36;7.77;;;5.10;;
13443;SDS011;6794;59.218;18.218;2024-03-22T10:29:05;8.37;;;5.63;;
13443;SDS011;6794;59.218;18.218;2024-03-22T10:31:33;8.20;;;4.97;;
13443;SDS011;6794;59.218;18.218;2024-03-22T10:34:00;10.80;;;5.77;;
13443;SDS011;6794;59.218;18.218;2024-03-22T10:36:29;10.37;;;6.03;;
13443;SDS011;6794;59.218;18.218;2024-03-22T10:38:56;7.80;;;5.27;;
13443;SDS011;6794;59.218;18.218;2024-03-22T10:41:28;10.63;;;6.30;;
13443;SDS011;6794;59.218;18.218;2024-03-22T10:43:54;10.40;;;6.57;;
13443;SDS011;6794;59.218;18.218;2024-03-22T10:46:20;10.60;;;6.57;;
13443;SDS011;6794;59.218;18.218;2024-03-22T10:48:46;11.77;;;6.73;;
13443;SDS011;6794;59.218;18.218;2024-03-22T10:51:13;11.90;;;6.60;;
13443;SDS011;6794;59.218;18.218;2024-03-22T10:53:40;14.43;;;6.37;;
13443;SDS011;6794;59.218;18.218;2024-03-22T10:56:06;12.77;;;6.70;;
13443;SDS011;6794;59.218;18.218;2024-03-22T10:58:34;12.10;;;6.53;;
13443;SDS011;6794;59.218;18.218;2024-03-22T11:01:00;11.97;;;6.10;;
13443;SDS011;6794;59.218;18.218;2024-03-22T11:03:30;10.97;;;6.33;;
13443;SDS011;6794;59.218;18.218;2024-03-22T11:05:58;9.17;;;6.23;;
13443;SDS011;6794;59.218;18.218;2024-03-22T11:08:25;8.07;;;5.77;;
13443;SDS011;6794;59.218;18.218;2024-03-22T11:10:51;13.77;;;6.60;;
13443;SDS011;6794;59.218;18.218;2024-03-22T11:13:17;10.97;;;6.83;;
13443;SDS011;6794;59.218;18.218;2024-03-22T11:15:43;9.87;;;6.00;;
13443;SDS011;6794;59.218;18.218;2024-03-22T11:18:09;10.97;;;6.67;;
13443;SDS011;6794;59.218;18.218;2024-03-22T11:20:35;10.17;;;5.97;;
13443;SDS011;6794;59.218;18.218;2024-03-22T11:23:03;11.50;;;6.10;;
13443;SDS011;6794;59.218;18.218;2024-03-22T11:25:31;11.20;;;5.40;;
13443;SDS011;6794;59.218;18.218;2024-03-22T11:27:57;11.77;;;6.90;;
13443;SDS011;6794;59.218;18.218;2024-03-22T11:30:24;10.33;;;6.23;;
13443;SDS011;6794;59.218;18.218;2024-03-22T11:32:50;8.17;;;5.43;;
13443;SDS011;6794;59.218;18.218;2024-03-22T11:35:16;10.33;;;6.03;;
13443;SDS011;6794;59.218;18.218;2024-03-22T11:37:42;9.57;;;6.10;;
13443;SDS011;6794;59.218;18.218;2024-03-22T11:40:08;10.80;;;5.87;;
13443;SDS011;6794;59.218;18.218;2024-03-22T11:42:35;12.27;;;6.20;;
13443;SDS011;6794;59.218;18.218;2024-03-22T11:45:02;11.60;;;5.50;;
13443;SDS011;6794;59.218;18.218;2024-03-22T11:47:28;10.57;;;6.27;;
13443;SDS011;6794;59.218;18.218;2024-03-22T11:49:54;9.67;;;6.13;;
13443;SDS011;6794;59.218;18.218;2024-03-22T11:52:24;11.20;;;5.90;;
13443;SDS011;6794;59.218;18.218;2024-03-22T11:54:51;10.23;;;5.60;;
13443;SDS011;6794;59.218;18.218;2024-03-22T11:57:17;10.33;;;6.43;;
13443;SDS011;6794;59.218;18.218;2024-03-22T11:59:44;11.40;;;6.63;;
13443;SDS011;6794;59.218;18.218;2024-03-22T12:02:10;10.23;;;6.37;;
13443;SDS011;6794;59.218;18.218;2024-03-22T12:04:36;10.60;;;6.20;;
13443;SDS011;6794;59.218;18.218;2024-03-22T12:07:02;10.40;;;6.00;;
13443;SDS011;6794;59.218;18.218;2024-03-22T12:09:28;10.77;;;6.67;;
13443;SDS011;6794;59.218;18.218;2024-03-22T12:11:55;12.33;;;6.63;;
13443;SDS011;6794;59.218;18.218;2024-03-22T12:14:21;10.70;;;6.63;;
13443;SDS011;6794;59.218;18.218;2024-03-22T12:16:47;14.32;;;9.10;;
13443;SDS011;6794;59.218;18.218;2024-03-22T12:19:13;10.20;;;6.13;;
13443;SDS011;6794;59.218;18.218;2024-03-22T12:21:39;13.97;;;6.73;;
13443;SDS011;6794;59.218;18.218;2024-03-22T12:24:05;12.87;;;6.73;;
13443;SDS011;6794;59.218;18.218;2024-03-22T12:26:31;12.20;;;6.23;;
13443;SDS011;6794;59.218;18.218;2024-03-22T12:28:57;14.10;;;6.77;;
13443;SDS011;6794;59.218;18.218;2024-03-22T12:31:24;14.00;;;6.80;;
13443;SDS011;6794;59.218;18.218;2024-03-22T12:33:50;11.73;;;6.57;;
13443;SDS011;6794;59.218;18.218;2024-03-22T12:36:16;11.47;;;6.80;;
13443;SDS011;6794;59.218;18.218;2024-03-22T12:38:42;10.53;;;6.77;;
13443;SDS011;6794;59.218;18.218;2024-03-22T12:41:08;14.10;;;6.17;;
13443;SDS011;6794;59.218;18.218;2024-03-22T12:43:34;9.23;;;5.73;;
13443;SDS011;6794;59.218;18.218;2024-03-22T12:46:00;10.10;;;5.70;;
13443;SDS011;6794;59.218;18.218;2024-03-22T12:48:26;9.90;;;5.90;;
13443;SDS011;6794;59.218;18.218;2024-03-22T12:50:52;8.93;;;6.17;;
13443;SDS011;6794;59.218;18.218;2024-03-22T12:53:18;8.90;;;5.73;;
13443;SDS011;6794;59.218;18.218;2024-03-22T12:55:44;12.30;;;8.05;;
13443;SDS011;6794;59.218;18.218;2024-03-22T12:58:10;10.20;;;5.77;;
13443;SDS011;6794;59.218;18.218;2024-03-22T13:00:36;9.03;;;5.90;;
13443;SDS011;6794;59.218;18.218;2024-03-22T13:03:02;8.60;;;5.70;;
13443;SDS011;6794;59.218;18.218;2024-03-22T13:05:28;8.43;;;5.83;;
13443;SDS011;6794;59.218;18.218;2024-03-22T13:07:56;10.57;;;6.03;;
13443;SDS011;6794;59.218;18.218;2024-03-22T13:10:22;8.70;;;5.53;;
13443;SDS011;6794;59.218;18.218;2024-03-22T13:12:48;8.20;;;6.07;;
13443;SDS011;6794;59.218;18.218;2024-03-22T13:15:14;12.40;;;6.13;;
13443;SDS011;6794;59.218;18.218;2024-03-22T13:17:40;7.80;;;5.33;;
13443;SDS011;6794;59.218;18.218;2024-03-22T13:20:06;7.77;;;5.03;;
13443;SDS011;6794;59.218;18.218;2024-03-22T13:22:35;9.10;;;5.57;;
13443;SDS011;6794;59.218;18.218;2024-03-22T13:25:02;9.73;;;5.20;;
13443;SDS011;6794;59.218;18.218;2024-03-22T13:27:31;6.57;;;4.33;;
13443;SDS011;6794;59.218;18.218;2024-03-22T13:29:57;5.93;;;4.60;;
13443;SDS011;6794;59.218;18.218;2024-03-22T13:32:23;7.63;;;4.63;;
13443;SDS011;6794;59.218;18.218;2024-03-22T13:34:49;6.78;;;5.00;;
13443;SDS011;6794;59.218;18.218;2024-03-22T13:37:15;5.87;;;4.03;;
13443;SDS011;6794;59.218;18.218;2024-03-22T13:39:41;5.83;;;3.90;;
13443;SDS011;6794;59.218;18.218;2024-03-22T13:42:07;5.33;;;4.20;;
13443;SDS011;6794;59.218;18.218;2024-03-22T13:44:34;4.87;;;3.63;;
13443;SDS011;6794;59.218;18.218;2024-03-22T13:47:00;6.23;;;3.80;;
13443;SDS011;6794;59.218;18.218;2024-03-22T13:49:26;5.63;;;3.70;;
13443;SDS011;6794;59.218;18.218;2024-03-22T13:51:53;6.67;;;3.67;;
13443;SDS011;6794;59.218;18.218;2024-03-22T13:54:19;3.90;;;2.90;;
13443;SDS011;6794;59.218;18.218;2024-03-22T13:56:45;5.37;;;3.03;;
13443;SDS011;6794;59.218;18.218;2024-03-22T13:59:11;5.60;;;3.20;;
13443;SDS011;6794;59.218;18.218;2024-03-22T14:01:39;5.23;;;2.90;;
13443;SDS011;6794;59.218;18.218;2024-03-22T14:04:06;7.57;;;2.70;;
13443;SDS011;6794;59.218;18.218;2024-03-22T14:06:33;5.17;;;3.07;;
13443;SDS011;6794;59.218;18.218;2024-03-22T14:08:59;3.80;;;2.87;;
13443;SDS011;6794;59.218;18.218;2024-03-22T14:11:29;3.73;;;2.20;;
13443;SDS011;6794;59.218;18.218;2024-03-22T14:13:58;5.20;;;2.67;;
13443;SDS011;6794;59.218;18.218;2024-03-22T14:16:25;5.43;;;2.80;;
13443;SDS011;6794;59.218;18.218;2024-03-22T14:18:51;4.07;;;2.70;;
13443;SDS011;6794;59.218;18.218;2024-03-22T14:21:17;3.97;;;2.10;;
13443;SDS011;6794;59.218;18.218;2024-03-22T14:23:48;4.13;;;2.20;;
13443;SDS011;6794;59.218;18.218;2024-03-22T14:26:15;4.20;;;2.10;;
13443;SDS011;6794;59.218;18.218;2024-03-22T14:28:41;3.27;;;2.10;;
13443;SDS011;6794;59.218;18.218;2024-03-22T14:31:07;4.47;;;2.20;;
13443;SDS011;6794;59.218;18.218;2024-03-22T14:33:34;3.93;;;2.00;;
13443;SDS011;6794;59.218;18.218;2024-03-22T14:36:01;5.70;;;1.90;;
13443;SDS011;6794;59.218;18.218;2024-03-22T14:38:27;5.57;;;2.30;;
13443;SDS011;6794;59.218;18.218;2024-03-22T14:40:54;4.73;;;2.10;;